sensor_id;sensor_type;location;lat;lon;timestamp;temperature;humidity
78904;DHT22;68291;49.602;8.722;2023-08-24T00:01:29;20.30;99.90
78904;DHT22;68291;49.602;8.722;2023-08-24T00:04:34;20.30;99.90
78904;DHT22;68291;49.602;8.722;2023-08-24T00:07:33;20.30;99.90
78904;DHT22;68291;49.602;8.722;2023-08-24T00:10:16;20.20;99.90
78904;DHT22;68291;49.602;8.722;2023-08-24T00:13:16;20.20;99.90
78904;DHT22;68291;49.602;8.722;2023-08-24T00:15:55;20.20;99.90
78904;DHT22;68291;49.602;8.722;2023-08-24T00:18:41;20.10;99.90
78904;DHT22;68291;49.602;8.722;2023-08-24T00:21:40;20.10;99.90
78904;DHT22;68291;49.602;8.722;2023-08-24T00:24:15;20.10;99.90
78904;DHT22;68291;49.602;8.722;2023-08-24T00:27:13;20.10;99.90
78904;DHT22;68291;49.602;8.722;2023-08-24T00:30:05;20.00;99.90
78904;DHT22;68291;49.602;8.722;2023-08-24T00:33:09;20.00;99.90
78904;DHT22;68291;49.602;8.722;2023-08-24T00:36:10;20.00;99.90
78904;DHT22;68291;49.602;8.722;2023-08-24T00:38:43;20.00;99.90
78904;DHT22;68291;49.602;8.722;2023-08-24T00:41:26;20.00;99.90
78904;DHT22;68291;49.602;8.722;2023-08-24T00:44:19;19.90;99.90
78904;DHT22;68291;49.602;8.722;2023-08-24T00:47:36;19.90;99.90
78904;DHT22;68291;49.602;8.722;2023-08-24T00:50:20;19.80;99.90
78904;DHT22;68291;49.602;8.722;2023-08-24T00:53:25;19.80;99.90
78904;DHT22;68291;49.602;8.722;2023-08-24T00:56:01;19.80;99.90
78904;DHT22;68291;49.602;8.722;2023-08-24T00:58:51;19.70;99.90
78904;DHT22;68291;49.602;8.722;2023-08-24T01:01:45;19.80;99.90
78904;DHT22;68291;49.602;8.722;2023-08-24T01:04:30;19.80;99.90
78904;DHT22;68291;49.602;8.722;2023-08-24T01:07:14;19.70;99.90
78904;DHT22;68291;49.602;8.722;2023-08-24T01:09:56;19.70;99.90
78904;DHT22;68291;49.602;8.722;2023-08-24T01:13:02;19.70;99.90
78904;DHT22;68291;49.602;8.722;2023-08-24T01:16:10;19.70;99.90
78904;DHT22;68291;49.602;8.722;2023-08-24T01:19:34;19.70;99.90
78904;DHT22;68291;49.602;8.722;2023-08-24T01:22:34;19.70;99.90
78904;DHT22;68291;49.602;8.722;2023-08-24T01:25:34;19.70;99.90
78904;DHT22;68291;49.602;8.722;2023-08-24T01:28:31;19.70;99.90
78904;DHT22;68291;49.602;8.722;2023-08-24T01:31:14;19.60;99.90
78904;DHT22;68291;49.602;8.722;2023-08-24T01:34:08;19.60;99.90
78904;DHT22;68291;49.602;8.722;2023-08-24T01:36:45;19.60;99.90
78904;DHT22;68291;49.602;8.722;2023-08-24T01:39:41;19.60;99.90
78904;DHT22;68291;49.602;8.722;2023-08-24T01:42:51;19.50;99.90
78904;DHT22;68291;49.602;8.722;2023-08-24T01:46:04;19.50;99.90
78904;DHT22;68291;49.602;8.722;2023-08-24T01:48:58;19.40;99.90
78904;DHT22;68291;49.602;8.722;2023-08-24T01:51:46;19.40;99.90
78904;DHT22;68291;49.602;8.722;2023-08-24T01:54:42;19.40;99.90
78904;DHT22;68291;49.602;8.722;2023-08-24T01:57:28;19.30;99.90
78904;DHT22;68291;49.602;8.722;2023-08-24T02:00:33;19.30;99.90
78904;DHT22;68291;49.602;8.722;2023-08-24T02:03:32;19.30;99.90
78904;DHT22;68291;49.602;8.722;2023-08-24T02:06:17;19.30;99.90
78904;DHT22;68291;49.602;8.722;2023-08-24T02:09:01;19.30;99.90
78904;DHT22;68291;49.602;8.722;2023-08-24T02:11:47;19.30;99.90
78904;DHT22;68291;49.602;8.722;2023-08-24T02:14:27;19.30;99.90
78904;DHT22;68291;49.602;8.722;2023-08-24T02:17:01;19.30;99.90
78904;DHT22;68291;49.602;8.722;2023-08-24T02:20:01;19.30;99.90
78904;DHT22;68291;49.602;8.722;2023-08-24T02:22:47;19.30;99.90
78904;DHT22;68291;49.602;8.722;2023-08-24T02:26:03;19.30;99.90
78904;DHT22;68291;49.602;8.722;2023-08-24T02:28:59;19.30;99.90
78904;DHT22;68291;49.602;8.722;2023-08-24T02:31:57;19.40;99.90
78904;DHT22;68291;49.602;8.722;2023-08-24T02:35:17;19.30;99.90
78904;DHT22;68291;49.602;8.722;2023-08-24T02:38:04;19.40;99.90
78904;DHT22;68291;49.602;8.722;2023-08-24T02:40:44;19.30;99.90
78904;DHT22;68291;49.602;8.722;2023-08-24T02:43:39;19.40;99.90
78904;DHT22;68291;49.602;8.722;2023-08-24T02:46:54;19.30;99.90
78904;DHT22;68291;49.602;8.722;2023-08-24T02:49:32;19.40;99.90
78904;DHT22;68291;49.602;8.722;2023-08-24T02:52:41;19.40;99.90
78904;DHT22;68291;49.602;8.722;2023-08-24T02:55:41;19.30;99.90
78904;DHT22;68291;49.602;8.722;2023-08-24T02:58:47;19.40;99.90
78904;DHT22;68291;49.602;8.722;2023-08-24T03:01:28;19.30;99.90
78904;DHT22;68291;49.602;8.722;2023-08-24T03:04:14;19.40;99.90
78904;DHT22;68291;49.602;8.722;2023-08-24T03:06:55;19.30;99.90
78904;DHT22;68291;49.602;8.722;2023-08-24T03:09:52;19.40;99.90
78904;DHT22;68291;49.602;8.722;2023-08-24T03:12:33;19.40;99.90
78904;DHT22;68291;49.602;8.722;2023-08-24T03:15:27;19.40;99.90
78904;DHT22;68291;49.602;8.722;2023-08-24T03:18:15;19.40;99.90
78904;DHT22;68291;49.602;8.722;2023-08-24T03:21:30;19.40;99.90
78904;DHT22;68291;49.602;8.722;2023-08-24T03:24:11;19.50;99.90
78904;DHT22;68291;49.602;8.722;2023-08-24T03:30:21;19.50;99.90
78904;DHT22;68291;49.602;8.722;2023-08-24T03:32:59;19.60;99.90
78904;DHT22;68291;49.602;8.722;2023-08-24T03:35:54;19.60;99.90
78904;DHT22;68291;49.602;8.722;2023-08-24T03:38:33;19.60;99.90
78904;DHT22;68291;49.602;8.722;2023-08-24T03:41:29;19.70;99.90
78904;DHT22;68291;49.602;8.722;2023-08-24T03:44:17;19.70;99.90
78904;DHT22;68291;49.602;8.722;2023-08-24T03:47:07;19.70;99.90
78904;DHT22;68291;49.602;8.722;2023-08-24T03:50:09;19.80;99.90
78904;DHT22;68291;49.602;8.722;2023-08-24T03:52:49;19.80;99.90
78904;DHT22;68291;49.602;8.722;2023-08-24T03:55:34;19.80;99.90
78904;DHT22;68291;49.602;8.722;2023-08-24T03:58:30;19.80;99.90
78904;DHT22;68291;49.602;8.722;2023-08-24T04:01:13;19.80;99.90
78904;DHT22;68291;49.602;8.722;2023-08-24T04:03:50;19.80;99.90
78904;DHT22;68291;49.602;8.722;2023-08-24T04:06:30;19.80;99.90
78904;DHT22;68291;49.602;8.722;2023-08-24T04:09:07;19.80;99.90
78904;DHT22;68291;49.602;8.722;2023-08-24T04:11:54;19.80;99.90
78904;DHT22;68291;49.602;8.722;2023-08-24T04:14:39;19.80;99.90
78904;DHT22;68291;49.602;8.722;2023-08-24T04:17:24;19.80;99.90
78904;DHT22;68291;49.602;8.722;2023-08-24T04:20:17;19.90;99.90
78904;DHT22;68291;49.602;8.722;2023-08-24T04:23:12;19.90;99.90
78904;DHT22;68291;49.602;8.722;2023-08-24T04:26:03;20.00;99.90
78904;DHT22;68291;49.602;8.722;2023-08-24T04:28:42;20.00;99.90
78904;DHT22;68291;49.602;8.722;2023-08-24T04:31:20;20.00;99.90
78904;DHT22;68291;49.602;8.722;2023-08-24T04:33:59;20.10;99.90
78904;DHT22;68291;49.602;8.722;2023-08-24T04:36:44;20.10;99.90
78904;DHT22;68291;49.602;8.722;2023-08-24T04:39:38;20.20;99.90
78904;DHT22;68291;49.602;8.722;2023-08-24T04:42:39;20.20;99.90
78904;DHT22;68291;49.602;8.722;2023-08-24T04:45:29;20.20;99.90
78904;DHT22;68291;49.602;8.722;2023-08-24T04:48:30;20.30;99.90
78904;DHT22;68291;49.602;8.722;2023-08-24T04:51:43;20.30;99.90
78904;DHT22;68291;49.602;8.722;2023-08-24T04:54:18;20.30;99.90
78904;DHT22;68291;49.602;8.722;2023-08-24T04:57:04;20.30;99.90
78904;DHT22;68291;49.602;8.722;2023-08-24T04:59:44;20.40;99.90
78904;DHT22;68291;49.602;8.722;2023-08-24T05:02:44;20.40;99.90
78904;DHT22;68291;49.602;8.722;2023-08-24T05:05:49;20.40;99.90
78904;DHT22;68291;49.602;8.722;2023-08-24T05:08:48;20.50;99.90
78904;DHT22;68291;49.602;8.722;2023-08-24T05:11:34;20.50;99.90
78904;DHT22;68291;49.602;8.722;2023-08-24T05:14:20;20.50;99.90
78904;DHT22;68291;49.602;8.722;2023-08-24T05:17:06;20.60;99.90
78904;DHT22;68291;49.602;8.722;2023-08-24T05:19:53;20.60;99.90
78904;DHT22;68291;49.602;8.722;2023-08-24T05:22:37;20.60;99.90
78904;DHT22;68291;49.602;8.722;2023-08-24T05:25:23;20.70;99.90
78904;DHT22;68291;49.602;8.722;2023-08-24T05:28:01;20.70;99.90
78904;DHT22;68291;49.602;8.722;2023-08-24T05:30:32;20.80;99.90
78904;DHT22;68291;49.602;8.722;2023-08-24T05:33:21;20.80;99.90
78904;DHT22;68291;49.602;8.722;2023-08-24T05:36:29;20.80;99.90
78904;DHT22;68291;49.602;8.722;2023-08-24T05:39:16;20.80;99.90
78904;DHT22;68291;49.602;8.722;2023-08-24T05:42:17;20.80;99.90
78904;DHT22;68291;49.602;8.722;2023-08-24T05:45:03;20.90;99.90
78904;DHT22;68291;49.602;8.722;2023-08-24T05:48:19;20.90;99.90
78904;DHT22;68291;49.602;8.722;2023-08-24T05:51:05;21.00;99.90
78904;DHT22;68291;49.602;8.722;2023-08-24T05:54:04;21.10;99.90
78904;DHT22;68291;49.602;8.722;2023-08-24T05:57:10;21.10;99.90
78904;DHT22;68291;49.602;8.722;2023-08-24T06:00:02;21.20;99.90
78904;DHT22;68291;49.602;8.722;2023-08-24T06:02:47;21.30;99.90
78904;DHT22;68291;49.602;8.722;2023-08-24T06:05:19;21.40;99.90
78904;DHT22;68291;49.602;8.722;2023-08-24T06:08:11;21.50;99.90
78904;DHT22;68291;49.602;8.722;2023-08-24T06:10:45;21.60;99.90
78904;DHT22;68291;49.602;8.722;2023-08-24T06:13:43;21.70;99.90
78904;DHT22;68291;49.602;8.722;2023-08-24T06:17:02;21.80;99.90
78904;DHT22;68291;49.602;8.722;2023-08-24T06:19:54;21.90;99.90
78904;DHT22;68291;49.602;8.722;2023-08-24T06:22:37;22.00;99.90
78904;DHT22;68291;49.602;8.722;2023-08-24T06:25:24;22.10;99.90
78904;DHT22;68291;49.602;8.722;2023-08-24T06:28:10;22.20;99.90
78904;DHT22;68291;49.602;8.722;2023-08-24T06:30:57;22.20;99.90
78904;DHT22;68291;49.602;8.722;2023-08-24T06:33:40;22.30;99.90
78904;DHT22;68291;49.602;8.722;2023-08-24T06:36:40;22.30;99.90
78904;DHT22;68291;49.602;8.722;2023-08-24T06:39:31;22.40;99.90
78904;DHT22;68291;49.602;8.722;2023-08-24T06:42:42;22.50;99.90
78904;DHT22;68291;49.602;8.722;2023-08-24T06:45:20;22.60;99.90
78904;DHT22;68291;49.602;8.722;2023-08-24T06:48:15;22.60;99.90
78904;DHT22;68291;49.602;8.722;2023-08-24T06:51:08;22.70;99.90
78904;DHT22;68291;49.602;8.722;2023-08-24T06:53:41;22.70;99.90
78904;DHT22;68291;49.602;8.722;2023-08-24T06:56:24;22.80;99.90
78904;DHT22;68291;49.602;8.722;2023-08-24T06:59:09;22.90;99.90
78904;DHT22;68291;49.602;8.722;2023-08-24T07:02:06;22.90;99.90
78904;DHT22;68291;49.602;8.722;2023-08-24T07:04:51;23.00;99.90
78904;DHT22;68291;49.602;8.722;2023-08-24T07:07:45;23.00;99.90
78904;DHT22;68291;49.602;8.722;2023-08-24T07:10:23;23.10;99.90
78904;DHT22;68291;49.602;8.722;2023-08-24T07:13:28;23.20;99.90
78904;DHT22;68291;49.602;8.722;2023-08-24T07:16:11;23.20;99.90
78904;DHT22;68291;49.602;8.722;2023-08-24T07:18:53;23.30;99.90
78904;DHT22;68291;49.602;8.722;2023-08-24T07:21:44;23.30;99.90
78904;DHT22;68291;49.602;8.722;2023-08-24T07:27:54;23.50;99.90
78904;DHT22;68291;49.602;8.722;2023-08-24T07:30:42;23.60;99.90
78904;DHT22;68291;49.602;8.722;2023-08-24T07:33:48;23.70;99.90
78904;DHT22;68291;49.602;8.722;2023-08-24T07:36:52;23.90;99.90
78904;DHT22;68291;49.602;8.722;2023-08-24T07:39:33;24.10;99.90
78904;DHT22;68291;49.602;8.722;2023-08-24T07:42:26;24.20;99.90
78904;DHT22;68291;49.602;8.722;2023-08-24T07:45:11;24.50;99.90
78904;DHT22;68291;49.602;8.722;2023-08-24T07:47:54;24.70;99.90
78904;DHT22;68291;49.602;8.722;2023-08-24T07:50:40;24.90;99.90
78904;DHT22;68291;49.602;8.722;2023-08-24T07:53:24;25.20;99.90
78904;DHT22;68291;49.602;8.722;2023-08-24T07:56:04;25.50;99.90
78904;DHT22;68291;49.602;8.722;2023-08-24T07:59:09;25.60;99.90
78904;DHT22;68291;49.602;8.722;2023-08-24T08:01:42;25.80;99.90
78904;DHT22;68291;49.602;8.722;2023-08-24T08:04:32;26.00;99.90
78904;DHT22;68291;49.602;8.722;2023-08-24T08:07:10;26.10;99.90
78904;DHT22;68291;49.602;8.722;2023-08-24T08:09:48;26.30;99.90
78904;DHT22;68291;49.602;8.722;2023-08-24T08:12:35;26.30;99.90
78904;DHT22;68291;49.602;8.722;2023-08-24T08:15:15;26.50;99.90
78904;DHT22;68291;49.602;8.722;2023-08-24T08:18:08;26.60;99.90
78904;DHT22;68291;49.602;8.722;2023-08-24T08:20:51;26.70;99.90
78904;DHT22;68291;49.602;8.722;2023-08-24T08:23:44;26.80;99.90
78904;DHT22;68291;49.602;8.722;2023-08-24T08:26:40;26.90;99.90
78904;DHT22;68291;49.602;8.722;2023-08-24T08:29:11;27.00;99.90
78904;DHT22;68291;49.602;8.722;2023-08-24T08:32:30;27.10;99.90
78904;DHT22;68291;49.602;8.722;2023-08-24T08:35:23;27.20;99.90
78904;DHT22;68291;49.602;8.722;2023-08-24T08:38:06;27.30;99.90
78904;DHT22;68291;49.602;8.722;2023-08-24T08:40:38;27.30;99.90
78904;DHT22;68291;49.602;8.722;2023-08-24T08:43:23;27.40;99.90
78904;DHT22;68291;49.602;8.722;2023-08-24T08:46:06;27.40;99.90
78904;DHT22;68291;49.602;8.722;2023-08-24T08:49:00;27.50;99.90
78904;DHT22;68291;49.602;8.722;2023-08-24T08:51:37;27.50;99.90
78904;DHT22;68291;49.602;8.722;2023-08-24T08:54:33;27.60;99.90
78904;DHT22;68291;49.602;8.722;2023-08-24T08:57:23;27.60;99.90
78904;DHT22;68291;49.602;8.722;2023-08-24T09:00:01;27.70;99.90
78904;DHT22;68291;49.602;8.722;2023-08-24T09:03:22;27.70;99.90
78904;DHT22;68291;49.602;8.722;2023-08-24T09:06:31;27.70;99.90
78904;DHT22;68291;49.602;8.722;2023-08-24T09:09:27;27.70;99.90
78904;DHT22;68291;49.602;8.722;2023-08-24T09:12:07;27.70;99.90
78904;DHT22;68291;49.602;8.722;2023-08-24T09:14:50;27.70;99.90
78904;DHT22;68291;49.602;8.722;2023-08-24T09:17:21;27.80;99.90
78904;DHT22;68291;49.602;8.722;2023-08-24T09:20:08;27.90;99.90
78904;DHT22;68291;49.602;8.722;2023-08-24T09:22:45;28.00;99.90
78904;DHT22;68291;49.602;8.722;2023-08-24T09:25:17;28.10;99.90
78904;DHT22;68291;49.602;8.722;2023-08-24T09:27:58;28.20;99.90
78904;DHT22;68291;49.602;8.722;2023-08-24T09:30:38;28.30;99.90
78904;DHT22;68291;49.602;8.722;2023-08-24T09:33:11;28.40;99.90
78904;DHT22;68291;49.602;8.722;2023-08-24T09:35:43;28.50;99.90
78904;DHT22;68291;49.602;8.722;2023-08-24T09:38:21;28.70;99.90
78904;DHT22;68291;49.602;8.722;2023-08-24T09:40:54;28.80;99.90
78904;DHT22;68291;49.602;8.722;2023-08-24T09:43:36;28.90;99.90
78904;DHT22;68291;49.602;8.722;2023-08-24T09:46:08;29.10;99.90
78904;DHT22;68291;49.602;8.722;2023-08-24T09:48:54;29.20;99.90
78904;DHT22;68291;49.602;8.722;2023-08-24T09:51:39;29.40;99.90
78904;DHT22;68291;49.602;8.722;2023-08-24T09:54:43;29.50;99.90
78904;DHT22;68291;49.602;8.722;2023-08-24T09:57:49;29.70;99.90
78904;DHT22;68291;49.602;8.722;2023-08-24T10:00:35;29.90;99.90
78904;DHT22;68291;49.602;8.722;2023-08-24T10:03:11;30.10;99.90
78904;DHT22;68291;49.602;8.722;2023-08-24T10:05:58;30.20;99.90
78904;DHT22;68291;49.602;8.722;2023-08-24T10:08:42;30.30;99.90
78904;DHT22;68291;49.602;8.722;2023-08-24T10:11:29;30.40;99.90
78904;DHT22;68291;49.602;8.722;2023-08-24T10:14:18;30.50;99.90
78904;DHT22;68291;49.602;8.722;2023-08-24T10:16:57;30.50;99.90
78904;DHT22;68291;49.602;8.722;2023-08-24T10:19:35;30.50;99.90
78904;DHT22;68291;49.602;8.722;2023-08-24T10:22:10;30.70;99.90
78904;DHT22;68291;49.602;8.722;2023-08-24T10:25:03;30.80;99.90
78904;DHT22;68291;49.602;8.722;2023-08-24T10:28:05;30.80;99.90
78904;DHT22;68291;49.602;8.722;2023-08-24T10:31:04;30.90;99.90
78904;DHT22;68291;49.602;8.722;2023-08-24T10:33:57;31.00;99.90
78904;DHT22;68291;49.602;8.722;2023-08-24T10:36:53;31.10;99.90
78904;DHT22;68291;49.602;8.722;2023-08-24T10:39:57;31.20;99.90
78904;DHT22;68291;49.602;8.722;2023-08-24T10:42:46;31.30;99.90
78904;DHT22;68291;49.602;8.722;2023-08-24T10:45:56;31.50;99.80
78904;DHT22;68291;49.602;8.722;2023-08-24T10:48:58;31.60;99.90
78904;DHT22;68291;49.602;8.722;2023-08-24T10:51:47;31.60;97.40
78904;DHT22;68291;49.602;8.722;2023-08-24T10:54:31;31.70;98.60
78904;DHT22;68291;49.602;8.722;2023-08-24T10:57:19;31.80;97.00
78904;DHT22;68291;49.602;8.722;2023-08-24T11:00:00;31.90;97.60
78904;DHT22;68291;49.602;8.722;2023-08-24T11:02:45;32.00;97.10
78904;DHT22;68291;49.602;8.722;2023-08-24T11:05:29;32.10;97.10
78904;DHT22;68291;49.602;8.722;2023-08-24T11:08:13;32.20;97.70
78904;DHT22;68291;49.602;8.722;2023-08-24T11:11:01;32.40;97.60
78904;DHT22;68291;49.602;8.722;2023-08-24T11:14:14;32.50;97.20
78904;DHT22;68291;49.602;8.722;2023-08-24T11:17:21;32.70;97.30
78904;DHT22;68291;49.602;8.722;2023-08-24T11:20:14;32.90;95.90
78904;DHT22;68291;49.602;8.722;2023-08-24T11:22:56;33.00;95.20
78904;DHT22;68291;49.602;8.722;2023-08-24T11:25:48;33.20;95.20
78904;DHT22;68291;49.602;8.722;2023-08-24T11:28:42;33.30;94.60
78904;DHT22;68291;49.602;8.722;2023-08-24T11:31:59;33.40;93.80
78904;DHT22;68291;49.602;8.722;2023-08-24T11:34:56;33.60;94.00
78904;DHT22;68291;49.602;8.722;2023-08-24T11:37:35;33.70;93.90
78904;DHT22;68291;49.602;8.722;2023-08-24T11:40:17;33.70;92.20
78904;DHT22;68291;49.602;8.722;2023-08-24T11:43:30;33.80;92.30
78904;DHT22;68291;49.602;8.722;2023-08-24T11:46:02;33.90;92.90
78904;DHT22;68291;49.602;8.722;2023-08-24T11:48:51;34.00;93.10
78904;DHT22;68291;49.602;8.722;2023-08-24T11:51:48;34.10;93.40
78904;DHT22;68291;49.602;8.722;2023-08-24T11:54:38;34.30;93.10
78904;DHT22;68291;49.602;8.722;2023-08-24T11:57:39;34.40;92.60
78904;DHT22;68291;49.602;8.722;2023-08-24T12:00:18;34.50;91.40
78904;DHT22;68291;49.602;8.722;2023-08-24T12:03:03;34.60;91.00
78904;DHT22;68291;49.602;8.722;2023-08-24T12:05:49;34.70;90.50
78904;DHT22;68291;49.602;8.722;2023-08-24T12:08:29;34.70;90.30
78904;DHT22;68291;49.602;8.722;2023-08-24T12:11:24;34.70;88.60
78904;DHT22;68291;49.602;8.722;2023-08-24T12:13:57;34.80;88.20
78904;DHT22;68291;49.602;8.722;2023-08-24T12:16:43;34.80;87.30
78904;DHT22;68291;49.602;8.722;2023-08-24T12:19:29;34.80;86.60
78904;DHT22;68291;49.602;8.722;2023-08-24T12:22:04;34.80;88.90
78904;DHT22;68291;49.602;8.722;2023-08-24T12:24:50;34.90;89.70
78904;DHT22;68291;49.602;8.722;2023-08-24T12:27:27;35.00;87.20
78904;DHT22;68291;49.602;8.722;2023-08-24T12:30:06;35.10;88.90
78904;DHT22;68291;49.602;8.722;2023-08-24T12:32:51;35.10;88.80
78904;DHT22;68291;49.602;8.722;2023-08-24T12:35:37;35.20;87.70
78904;DHT22;68291;49.602;8.722;2023-08-24T12:38:22;35.20;90.00
78904;DHT22;68291;49.602;8.722;2023-08-24T12:41:23;35.30;86.80
78904;DHT22;68291;49.602;8.722;2023-08-24T12:43:55;35.30;85.70
78904;DHT22;68291;49.602;8.722;2023-08-24T12:46:59;35.40;85.00
78904;DHT22;68291;49.602;8.722;2023-08-24T12:49:54;35.40;90.90
78904;DHT22;68291;49.602;8.722;2023-08-24T12:52:50;35.40;90.20
78904;DHT22;68291;49.602;8.722;2023-08-24T12:55:40;35.40;89.80
78904;DHT22;68291;49.602;8.722;2023-08-24T12:58:41;35.40;87.60
78904;DHT22;68291;49.602;8.722;2023-08-24T13:01:40;35.40;88.80
78904;DHT22;68291;49.602;8.722;2023-08-24T13:04:13;35.40;86.60
78904;DHT22;68291;49.602;8.722;2023-08-24T13:06:48;35.40;86.80
78904;DHT22;68291;49.602;8.722;2023-08-24T13:09:29;35.40;89.20
78904;DHT22;68291;49.602;8.722;2023-08-24T13:12:15;35.30;90.10
78904;DHT22;68291;49.602;8.722;2023-08-24T13:14:57;35.30;90.60
78904;DHT22;68291;49.602;8.722;2023-08-24T13:17:44;35.30;90.90
78904;DHT22;68291;49.602;8.722;2023-08-24T13:20:16;35.20;91.70
78904;DHT22;68291;49.602;8.722;2023-08-24T13:23:02;35.10;89.40
78904;DHT22;68291;49.602;8.722;2023-08-24T13:25:56;35.00;91.10
78904;DHT22;68291;49.602;8.722;2023-08-24T13:29:07;34.90;91.00
78904;DHT22;68291;49.602;8.722;2023-08-24T13:31:45;34.80;92.20
78904;DHT22;68291;49.602;8.722;2023-08-24T13:34:51;34.60;91.80
78904;DHT22;68291;49.602;8.722;2023-08-24T13:37:40;34.40;93.60
78904;DHT22;68291;49.602;8.722;2023-08-24T13:40:24;34.20;94.00
78904;DHT22;68291;49.602;8.722;2023-08-24T13:43:32;34.00;94.00
78904;DHT22;68291;49.602;8.722;2023-08-24T13:46:17;33.80;93.90
78904;DHT22;68291;49.602;8.722;2023-08-24T13:49:01;33.60;93.50
78904;DHT22;68291;49.602;8.722;2023-08-24T13:51:59;33.40;93.90
78904;DHT22;68291;49.602;8.722;2023-08-24T13:54:36;33.20;94.40
78904;DHT22;68291;49.602;8.722;2023-08-24T13:57:24;33.10;94.70
78904;DHT22;68291;49.602;8.722;2023-08-24T14:00:12;33.20;94.90
78904;DHT22;68291;49.602;8.722;2023-08-24T14:03:14;33.50;94.30
78904;DHT22;68291;49.602;8.722;2023-08-24T14:06:02;33.70;93.30
78904;DHT22;68291;49.602;8.722;2023-08-24T14:09:02;33.80;94.00
78904;DHT22;68291;49.602;8.722;2023-08-24T14:11:38;33.80;93.80
78904;DHT22;68291;49.602;8.722;2023-08-24T14:14:33;33.80;93.90
78904;DHT22;68291;49.602;8.722;2023-08-24T14:17:19;33.60;93.60
78904;DHT22;68291;49.602;8.722;2023-08-24T14:20:15;33.40;93.70
78904;DHT22;68291;49.602;8.722;2023-08-24T14:23:16;33.20;94.60
78904;DHT22;68291;49.602;8.722;2023-08-24T14:29:12;32.70;94.70
78904;DHT22;68291;49.602;8.722;2023-08-24T14:32:08;32.40;95.00
78904;DHT22;68291;49.602;8.722;2023-08-24T14:34:48;32.10;94.60
78904;DHT22;68291;49.602;8.722;2023-08-24T14:37:29;31.90;94.00
78904;DHT22;68291;49.602;8.722;2023-08-24T14:40:05;31.60;93.60
78904;DHT22;68291;49.602;8.722;2023-08-24T14:43:04;31.40;93.70
78904;DHT22;68291;49.602;8.722;2023-08-24T14:45:44;31.20;93.80
78904;DHT22;68291;49.602;8.722;2023-08-24T14:48:47;31.00;93.80
78904;DHT22;68291;49.602;8.722;2023-08-24T14:51:29;30.80;94.10
78904;DHT22;68291;49.602;8.722;2023-08-24T14:54:15;30.60;94.10
78904;DHT22;68291;49.602;8.722;2023-08-24T14:56:53;30.40;94.30
78904;DHT22;68291;49.602;8.722;2023-08-24T14:59:51;30.20;94.60
78904;DHT22;68291;49.602;8.722;2023-08-24T15:02:28;29.80;95.20
78904;DHT22;68291;49.602;8.722;2023-08-24T15:05:14;29.40;95.30
78904;DHT22;68291;49.602;8.722;2023-08-24T15:07:51;29.00;96.00
78904;DHT22;68291;49.602;8.722;2023-08-24T15:10:38;28.50;97.60
78904;DHT22;68291;49.602;8.722;2023-08-24T15:13:31;28.10;99.20
78904;DHT22;68291;49.602;8.722;2023-08-24T15:16:29;27.80;99.90
78904;DHT22;68291;49.602;8.722;2023-08-24T15:19:18;27.60;99.90
78904;DHT22;68291;49.602;8.722;2023-08-24T15:22:14;27.30;99.90
78904;DHT22;68291;49.602;8.722;2023-08-24T15:25:02;27.20;99.90
78904;DHT22;68291;49.602;8.722;2023-08-24T15:27:52;27.10;99.90
78904;DHT22;68291;49.602;8.722;2023-08-24T15:30:48;26.90;99.90
78904;DHT22;68291;49.602;8.722;2023-08-24T15:33:27;26.80;99.90
78904;DHT22;68291;49.602;8.722;2023-08-24T15:36:03;26.80;99.90
78904;DHT22;68291;49.602;8.722;2023-08-24T15:38:35;26.70;99.90
78904;DHT22;68291;49.602;8.722;2023-08-24T15:41:15;26.80;99.90
78904;DHT22;68291;49.602;8.722;2023-08-24T15:43:56;26.80;99.90
78904;DHT22;68291;49.602;8.722;2023-08-24T15:46:46;26.90;99.90
78904;DHT22;68291;49.602;8.722;2023-08-24T15:49:47;26.90;99.90
78904;DHT22;68291;49.602;8.722;2023-08-24T15:52:49;26.90;99.90
78904;DHT22;68291;49.602;8.722;2023-08-24T15:55:36;26.80;99.90
78904;DHT22;68291;49.602;8.722;2023-08-24T15:58:17;26.80;99.90
78904;DHT22;68291;49.602;8.722;2023-08-24T16:00:51;26.80;99.90
78904;DHT22;68291;49.602;8.722;2023-08-24T16:03:26;26.90;99.90
78904;DHT22;68291;49.602;8.722;2023-08-24T16:06:03;26.90;99.90
78904;DHT22;68291;49.602;8.722;2023-08-24T16:08:55;26.90;99.90
78904;DHT22;68291;49.602;8.722;2023-08-24T16:11:44;27.00;99.90
78904;DHT22;68291;49.602;8.722;2023-08-24T16:14:49;27.10;99.90
78904;DHT22;68291;49.602;8.722;2023-08-24T16:17:36;27.10;99.90
78904;DHT22;68291;49.602;8.722;2023-08-24T16:20:21;27.20;99.90
78904;DHT22;68291;49.602;8.722;2023-08-24T16:23:19;27.20;99.90
78904;DHT22;68291;49.602;8.722;2023-08-24T16:25:53;27.20;99.90
78904;DHT22;68291;49.602;8.722;2023-08-24T16:28:41;27.20;99.90
78904;DHT22;68291;49.602;8.722;2023-08-24T16:31:56;27.20;99.90
78904;DHT22;68291;49.602;8.722;2023-08-24T16:34:30;27.10;99.90
78904;DHT22;68291;49.602;8.722;2023-08-24T16:37:45;27.00;99.90
78904;DHT22;68291;49.602;8.722;2023-08-24T16:40:27;27.00;99.90
78904;DHT22;68291;49.602;8.722;2023-08-24T16:43:06;26.90;99.90
78904;DHT22;68291;49.602;8.722;2023-08-24T16:45:44;26.90;99.90
78904;DHT22;68291;49.602;8.722;2023-08-24T16:48:32;27.00;99.90
78904;DHT22;68291;49.602;8.722;2023-08-24T16:51:21;27.00;99.90
78904;DHT22;68291;49.602;8.722;2023-08-24T16:54:07;26.90;99.90
78904;DHT22;68291;49.602;8.722;2023-08-24T17:00:24;26.90;99.90
78904;DHT22;68291;49.602;8.722;2023-08-24T17:03:01;26.90;99.90
78904;DHT22;68291;49.602;8.722;2023-08-24T17:05:44;26.80;99.90
78904;DHT22;68291;49.602;8.722;2023-08-24T17:08:16;26.80;99.90
78904;DHT22;68291;49.602;8.722;2023-08-24T17:11:32;26.70;99.90
78904;DHT22;68291;49.602;8.722;2023-08-24T17:17:33;26.60;99.90
78904;DHT22;68291;49.602;8.722;2023-08-24T17:20:14;26.60;99.90
78904;DHT22;68291;49.602;8.722;2023-08-24T17:23:00;26.50;99.90
78904;DHT22;68291;49.602;8.722;2023-08-24T17:25:40;26.40;99.90
78904;DHT22;68291;49.602;8.722;2023-08-24T17:28:24;26.30;99.90
78904;DHT22;68291;49.602;8.722;2023-08-24T17:31:21;26.30;99.90
78904;DHT22;68291;49.602;8.722;2023-08-24T17:33:59;26.30;99.90
78904;DHT22;68291;49.602;8.722;2023-08-24T17:36:46;26.20;99.90
78904;DHT22;68291;49.602;8.722;2023-08-24T17:39:28;26.20;99.90
78904;DHT22;68291;49.602;8.722;2023-08-24T17:42:15;26.10;99.90
78904;DHT22;68291;49.602;8.722;2023-08-24T17:44:50;25.90;99.90
78904;DHT22;68291;49.602;8.722;2023-08-24T17:47:39;25.60;99.90
78904;DHT22;68291;49.602;8.722;2023-08-24T17:50:34;25.30;99.90
78904;DHT22;68291;49.602;8.722;2023-08-24T17:53:21;25.00;99.90
78904;DHT22;68291;49.602;8.722;2023-08-24T17:56:14;24.80;99.90
78904;DHT22;68291;49.602;8.722;2023-08-24T17:59:00;24.60;99.90
78904;DHT22;68291;49.602;8.722;2023-08-24T18:01:45;24.40;99.90
78904;DHT22;68291;49.602;8.722;2023-08-24T18:04:33;24.30;99.90